Time;durP1;ratioP1;P1;durP2;ratioP2;P2;SDS_P1;SDS_P2;PMS_P1;PMS_P2;Temp;Humidity;BMP_temperature;BMP_pressure;BME280_temperature;BME280_humidity;BME280_pressure;Samples;Min_cycle;Max_cycle;Signal;HPM_P1;HPM_P2
2021/09/30 00:01:14;;;;;;;0.10;0.10;;;;;;;;;;12975606;22;20054;-77
2021/09/30 00:06:17;;;;;;;0.10;0.10;;;;;;;;;;12947033;22;20102;-78
2021/09/30 00:11:24;;;;;;;0.10;0.10;;;;;;;;;;12949244;22;20016;-78
2021/09/30 00:16:39;;;;;;;0.10;0.10;;;;;;;;;;12975434;22;20019;-78
2021/09/30 00:48:51;;;;;;;0.10;0.10;;;;;;;;;;12975455;22;20435;-78
2021/09/30 02:21:05;;;;;;;0.10;0.10;;;;;;;;;;12957294;22;20030;-75
2021/09/30 02:58:32;;;;;;;0.10;0.10;;;;;;;;;;12955237;22;20023;-74
2021/09/30 03:03:37;;;;;;;0.10;0.10;;;;;;;;;;12854365;23;20032;-75
2021/09/30 03:08:46;;;;;;;0.15;0.10;;;;;;;;;;12855986;23;20487;-75
2021/09/30 03:13:55;;;;;;;0.22;0.10;;;;;;;;;;12859508;23;20399;-74
2021/09/30 03:19:18;;;;;;;0.10;0.10;;;;;;;;;;12858395;23;20103;-76
2021/09/30 03:24:22;;;;;;;0.10;0.10;;;;;;;;;;12864975;23;20024;-75
2021/09/30 03:29:26;;;;;;;0.10;0.10;;;;;;;;;;12881149;23;20028;-75
2021/09/30 03:34:34;;;;;;;0.20;0.20;;;;;;;;;;12864488;23;20516;-75
2021/09/30 03:39:40;;;;;;;0.10;0.10;;;;;;;;;;12854515;23;20104;-74
2021/09/30 03:44:43;;;;;;;0.15;0.15;;;;;;;;;;12853302;23;20025;-74
2021/09/30 03:49:54;;;;;;;0.10;0.10;;;;;;;;;;12855744;23;20025;-75
2021/09/30 03:55:20;;;;;;;0.10;0.10;;;;;;;;;;12854485;23;20036;-72
2021/09/30 04:00:23;;;;;;;0.10;0.10;;;;;;;;;;12901001;22;20098;-74
2021/09/30 04:05:28;;;;;;;0.20;0.20;;;;;;;;;;12945177;22;20023;-75
2021/09/30 04:10:32;;;;;;;0.13;0.10;;;;;;;;;;12946079;22;20034;-76
2021/09/30 04:15:36;;;;;;;0.17;0.17;;;;;;;;;;12946614;22;20023;-76
2021/09/30 04:20:41;;;;;;;0.20;0.20;;;;;;;;;;12973582;22;20024;-75
2021/09/30 04:25:46;;;;;;;0.10;0.10;;;;;;;;;;12973023;22;20039;-74
2021/09/30 04:30:50;;;;;;;0.10;0.10;;;;;;;;;;12974960;22;20085;-74
2021/09/30 04:36:02;;;;;;;0.20;0.20;;;;;;;;;;12948608;22;20127;-75
2021/09/30 04:41:07;;;;;;;0.10;0.10;;;;;;;;;;12975651;22;20054;-76
2021/09/30 04:46:10;;;;;;;0.10;0.10;;;;;;;;;;12951538;22;20027;-76
2021/09/30 04:51:21;;;;;;;0.20;0.20;;;;;;;;;;12951703;22;20016;-76
2021/09/30 04:56:27;;;;;;;0.10;0.10;;;;;;;;;;12950949;22;20073;-75
2021/09/30 05:01:35;;;;;;;0.20;0.20;;;;;;;;;;12951408;22;20099;-81
2021/09/30 05:06:43;;;;;;;0.20;0.20;;;;;;;;;;12952283;22;20530;-75
2021/09/30 05:11:51;;;;;;;0.10;0.10;;;;;;;;;;12952336;22;20059;-75
2021/09/30 05:16:54;;;;;;;0.20;0.20;;;;;;;;;;12951688;22;20030;-75
2021/09/30 05:22:23;;;;;;;0.20;0.20;;;;;;;;;;12974971;22;20514;-75
2021/09/30 05:27:27;;;;;;;0.20;0.20;;;;;;;;;;12953790;22;20023;-74
2021/09/30 05:32:30;;;;;;;0.10;0.10;;;;;;;;;;12955319;22;20070;-75
2021/09/30 05:37:36;;;;;;;0.20;0.20;;;;;;;;;;12954999;22;20081;-75
2021/09/30 05:42:41;;;;;;;0.10;0.10;;;;;;;;;;12953716;22;20357;-75
2021/09/30 05:47:44;;;;;;;0.10;0.10;;;;;;;;;;12953827;22;20051;-76
2021/09/30 05:52:49;;;;;;;0.28;0.10;;;;;;;;;;12951596;22;20024;-75
2021/09/30 05:58:15;;;;;;;0.15;0.15;;;;;;;;;;12961096;22;20023;-75
2021/09/30 06:14:05;;;;;;;0.15;0.15;;;;;;;;;;12955093;22;20315;-74
2021/09/30 06:19:10;;;;;;;0.20;0.20;;;;;;;;;;12982635;22;20022;-74
2021/09/30 06:24:17;;;;;;;0.13;0.13;;;;;;;;;;12952763;22;20023;-74
2021/09/30 06:29:29;;;;;;;0.20;0.20;;;;;;;;;;12955079;22;20027;-77
2021/09/30 06:34:41;;;;;;;0.30;0.10;;;;;;;;;;12957537;22;20346;-75
2021/09/30 06:39:56;;;;;;;0.20;0.20;;;;;;;;;;12958784;22;20117;-74
2021/09/30 06:45:00;;;;;;;1.65;0.28;;;;;;;;;;12957563;22;20024;-74
2021/09/30 06:50:16;;;;;;;0.45;0.25;;;;;;;;;;13004688;22;20381;-74
2021/09/30 06:55:37;;;;;;;0.10;0.10;;;;;;;;;;12983122;22;20027;-75
2021/09/30 07:01:01;;;;;;;0.10;0.10;;;;;;;;;;12981729;22;20073;-73
2021/09/30 07:06:23;;;;;;;0.20;0.20;;;;;;;;;;12996159;22;20100;-75
2021/09/30 07:11:26;;;;;;;0.22;0.10;;;;;;;;;;12961799;22;20027;-73
2021/09/30 07:16:40;;;;;;;0.20;0.20;;;;;;;;;;12982585;22;20016;-73
2021/09/30 07:21:43;;;;;;;0.20;0.20;;;;;;;;;;12983467;22;20438;-73
2021/09/30 07:26:46;;;;;;;0.17;0.17;;;;;;;;;;12985204;22;20016;-72
2021/09/30 07:31:50;;;;;;;0.20;0.20;;;;;;;;;;12983996;22;20034;-73
2021/09/30 07:36:53;;;;;;;0.10;0.10;;;;;;;;;;12978660;22;20019;-74
2021/09/30 07:41:56;;;;;;;0.20;0.20;;;;;;;;;;12978642;22;20026;-71
2021/09/30 07:47:01;;;;;;;0.10;0.10;;;;;;;;;;12979318;22;20016;-72
2021/09/30 07:52:08;;;;;;;0.10;0.10;;;;;;;;;;12983942;22;20096;-73
2021/09/30 07:57:11;;;;;;;0.10;0.10;;;;;;;;;;12956175;22;20020;-72
2021/09/30 08:02:15;;;;;;;0.10;0.10;;;;;;;;;;12986227;22;20031;-73
2021/09/30 08:07:18;;;;;;;0.10;0.10;;;;;;;;;;12959854;22;20454;-73
2021/09/30 08:12:21;;;;;;;0.10;0.10;;;;;;;;;;12927600;22;20047;-73
2021/09/30 08:17:24;;;;;;;0.10;0.10;;;;;;;;;;12923374;23;20027;-72
2021/09/30 08:22:29;;;;;;;0.20;0.20;;;;;;;;;;12920445;23;20512;-72
2021/09/30 08:27:32;;;;;;;0.10;0.10;;;;;;;;;;12922069;23;20051;-72
2021/09/30 08:32:37;;;;;;;0.10;0.10;;;;;;;;;;12921181;23;20084;-73
2021/09/30 08:37:40;;;;;;;0.08;0.08;;;;;;;;;;12921887;23;20024;-72
2021/09/30 08:42:47;;;;;;;0.10;0.10;;;;;;;;;;12920234;23;20504;-74
2021/09/30 08:47:56;;;;;;;0.10;0.10;;;;;;;;;;12893176;23;20020;-73
2021/09/30 08:52:59;;;;;;;0.13;0.10;;;;;;;;;;12919606;22;20172;-72
2021/09/30 08:58:04;;;;;;;0.10;0.10;;;;;;;;;;12893148;23;20027;-72
2021/09/30 09:03:08;;;;;;;0.10;0.10;;;;;;;;;;12919219;23;20028;-73
2021/09/30 09:08:11;;;;;;;0.38;0.15;;;;;;;;;;12918071;23;20043;-73
2021/09/30 09:13:19;;;;;;;0.10;0.10;;;;;;;;;;12918294;23;20075;-73
2021/09/30 09:18:24;;;;;;;0.10;0.10;;;;;;;;;;12919007;23;20026;-74
2021/09/30 09:23:28;;;;;;;0.08;0.08;;;;;;;;;;12918368;23;20057;-74
2021/09/30 09:28:37;;;;;;;0.22;0.10;;;;;;;;;;12916522;23;20407;-75
2021/09/30 09:33:41;;;;;;;0.20;0.10;;;;;;;;;;12917849;23;20017;-75
2021/09/30 09:38:47;;;;;;;0.10;0.10;;;;;;;;;;12920006;22;20043;-75
2021/09/30 09:43:51;;;;;;;0.10;0.10;;;;;;;;;;12916004;23;20048;-74
2021/09/30 09:48:56;;;;;;;0.00;0.00;;;;;;;;;;12919400;23;20027;-73
2021/09/30 09:54:00;;;;;;;0.00;0.00;;;;;;;;;;12919837;23;20016;-72
2021/09/30 09:59:03;;;;;;;0.10;0.10;;;;;;;;;;12917136;23;20028;-73
2021/09/30 10:04:33;;;;;;;0.38;0.10;;;;;;;;;;12921167;23;20017;-73
2021/09/30 10:09:39;;;;;;;0.10;0.10;;;;;;;;;;12921960;23;20083;-73
2021/09/30 10:14:50;;;;;;;0.35;0.10;;;;;;;;;;12923645;23;20016;-73
2021/09/30 10:19:53;;;;;;;0.20;0.10;;;;;;;;;;12922274;23;20330;-73
2021/09/30 10:24:59;;;;;;;0.10;0.10;;;;;;;;;;12922821;23;20050;-73
2021/09/30 10:30:02;;;;;;;0.10;0.10;;;;;;;;;;12896395;22;20034;-72
2021/09/30 10:35:07;;;;;;;0.10;0.10;;;;;;;;;;12923027;23;20012;-73
2021/09/30 10:40:16;;;;;;;0.10;0.10;;;;;;;;;;12896434;23;20047;-73
2021/09/30 10:45:25;;;;;;;0.10;0.10;;;;;;;;;;12923241;23;20122;-72
2021/09/30 10:50:43;;;;;;;0.10;0.10;;;;;;;;;;12896956;23;20034;-73
2021/09/30 10:55:47;;;;;;;0.08;0.08;;;;;;;;;;12896578;23;20016;-74
2021/09/30 11:00:59;;;;;;;0.10;0.10;;;;;;;;;;12948534;23;20004;-80
2021/09/30 11:06:15;;;;;;;0.00;0.00;;;;;;;;;;12961453;23;20007;-82
2021/09/30 11:11:25;;;;;;;0.00;0.00;;;;;;;;;;12894249;23;20020;-80
2021/09/30 11:16:35;;;;;;;0.00;0.00;;;;;;;;;;12911938;23;20741;-80
2021/09/30 11:21:45;;;;;;;0.30;0.10;;;;;;;;;;12884809;23;20028;-80
2021/09/30 11:27:06;;;;;;;0.10;0.10;;;;;;;;;;12911096;23;20028;-80
2021/09/30 11:32:27;;;;;;;0.00;0.00;;;;;;;;;;12910468;23;20020;-80
2021/09/30 11:37:35;;;;;;;0.10;0.10;;;;;;;;;;12913223;23;20865;-80
2021/09/30 11:42:40;;;;;;;0.32;0.10;;;;;;;;;;12914965;23;20020;-80
2021/09/30 11:47:45;;;;;;;0.10;0.10;;;;;;;;;;12913588;23;20015;-80
2021/09/30 11:52:55;;;;;;;0.08;0.08;;;;;;;;;;12913926;23;20447;-80
2021/09/30 11:57:59;;;;;;;0.10;0.10;;;;;;;;;;12887277;23;20030;-80
2021/09/30 12:03:05;;;;;;;0.10;0.10;;;;;;;;;;12914087;23;20027;-80
2021/09/30 12:08:08;;;;;;;0.10;0.10;;;;;;;;;;12912999;22;20028;-80
2021/09/30 12:13:12;;;;;;;0.00;0.00;;;;;;;;;;12914076;23;20087;-80
2021/09/30 12:18:17;;;;;;;0.28;0.10;;;;;;;;;;12886657;23;20051;-80
2021/09/30 12:23:21;;;;;;;0.00;0.00;;;;;;;;;;12911681;23;20034;-80
2021/09/30 12:28:23;;;;;;;0.00;0.00;;;;;;;;;;12915291;23;20442;-80
2021/09/30 12:33:32;;;;;;;0.00;0.00;;;;;;;;;;12914414;23;21059;-80
2021/09/30 12:38:38;;;;;;;0.55;0.10;;;;;;;;;;12888046;23;20028;-80
2021/09/30 12:43:44;;;;;;;0.22;0.20;;;;;;;;;;12914311;23;20023;-80
2021/09/30 12:48:49;;;;;;;0.20;0.10;;;;;;;;;;12885878;23;20106;-81
2021/09/30 12:53:53;;;;;;;0.00;0.00;;;;;;;;;;12912669;23;20016;-80
2021/09/30 12:58:56;;;;;;;0.10;0.10;;;;;;;;;;12912660;22;20028;-80
2021/09/30 13:04:07;;;;;;;0.10;0.10;;;;;;;;;;12886366;23;20028;-80
2021/09/30 13:09:21;;;;;;;0.08;0.08;;;;;;;;;;12911575;23;20312;-80
2021/09/30 13:14:27;;;;;;;0.00;0.00;;;;;;;;;;12886049;23;20534;-80
2021/09/30 13:19:42;;;;;;;0.10;0.10;;;;;;;;;;12912706;23;20054;-80
2021/09/30 13:24:47;;;;;;;0.10;0.10;;;;;;;;;;12912358;23;20018;-80
2021/09/30 13:29:50;;;;;;;0.10;0.10;;;;;;;;;;12912524;23;20355;-78
2021/09/30 13:34:55;;;;;;;0.20;0.10;;;;;;;;;;12911678;23;20015;-79
2021/09/30 13:40:00;;;;;;;0.10;0.10;;;;;;;;;;12914207;23;20040;-79
2021/09/30 13:45:04;;;;;;;0.00;0.00;;;;;;;;;;12913267;23;20019;-79
2021/09/30 13:50:10;;;;;;;0.03;0.03;;;;;;;;;;12884389;23;20458;-79
2021/09/30 13:55:15;;;;;;;0.00;0.00;;;;;;;;;;12884031;23;20107;-80
2021/09/30 14:00:18;;;;;;;0.10;0.10;;;;;;;;;;12908878;23;20059;-79
2021/09/30 14:05:22;;;;;;;0.10;0.10;;;;;;;;;;12911917;23;20767;-80
2021/09/30 14:10:26;;;;;;;0.00;0.00;;;;;;;;;;12911240;23;20020;-80
2021/09/30 14:15:29;;;;;;;0.05;0.05;;;;;;;;;;12912156;23;20022;-79
2021/09/30 14:20:35;;;;;;;0.10;0.10;;;;;;;;;;12912082;23;20030;-80
2021/09/30 14:25:38;;;;;;;0.10;0.10;;;;;;;;;;12911129;23;20405;-80
2021/09/30 14:30:43;;;;;;;0.00;0.00;;;;;;;;;;12885107;23;20382;-79
2021/09/30 14:35:54;;;;;;;0.10;0.10;;;;;;;;;;12911103;22;20048;-79
2021/09/30 14:40:58;;;;;;;0.00;0.00;;;;;;;;;;12884025;23;20016;-80
2021/09/30 14:46:01;;;;;;;0.00;0.00;;;;;;;;;;12909074;23;20081;-79
2021/09/30 14:51:10;;;;;;;0.10;0.10;;;;;;;;;;12922747;23;20481;-72
2021/09/30 14:56:39;;;;;;;0.10;0.10;;;;;;;;;;12897133;23;20363;-73
2021/09/30 15:01:43;;;;;;;0.10;0.10;;;;;;;;;;12930823;23;20023;-79
2021/09/30 15:06:49;;;;;;;0.00;0.00;;;;;;;;;;12914543;23;20280;-80
2021/09/30 15:11:55;;;;;;;0.10;0.10;;;;;;;;;;12912305;23;20538;-80
2021/09/30 15:17:02;;;;;;;0.10;0.10;;;;;;;;;;12909853;23;20091;-80
2021/09/30 15:22:07;;;;;;;0.00;0.00;;;;;;;;;;12910075;23;20055;-80
2021/09/30 15:27:12;;;;;;;0.10;0.10;;;;;;;;;;12911272;22;20439;-80
2021/09/30 15:32:16;;;;;;;0.10;0.10;;;;;;;;;;12883943;23;20020;-80
2021/09/30 15:37:20;;;;;;;0.10;0.10;;;;;;;;;;12911641;23;20068;-80
2021/09/30 15:42:24;;;;;;;0.00;0.00;;;;;;;;;;12912468;23;20050;-80
2021/09/30 15:47:28;;;;;;;0.10;0.10;;;;;;;;;;12884754;23;20074;-80
2021/09/30 15:52:34;;;;;;;0.00;0.00;;;;;;;;;;12912673;23;20047;-80
2021/09/30 15:57:37;;;;;;;0.10;0.10;;;;;;;;;;12908033;23;20108;-80
2021/09/30 16:02:44;;;;;;;0.10;0.10;;;;;;;;;;12912951;23;20462;-80
2021/09/30 16:07:51;;;;;;;0.00;0.00;;;;;;;;;;12911472;23;20391;-81
2021/09/30 16:12:55;;;;;;;0.10;0.10;;;;;;;;;;12920179;23;20395;-81
2021/09/30 16:17:58;;;;;;;0.00;0.00;;;;;;;;;;12915518;23;20020;-76
2021/09/30 16:23:03;;;;;;;0.08;0.08;;;;;;;;;;12910323;22;20043;-77
2021/09/30 16:28:07;;;;;;;0.00;0.00;;;;;;;;;;12913670;23;20439;-78
2021/09/30 16:33:10;;;;;;;0.10;0.10;;;;;;;;;;12916271;23;20016;-78
2021/09/30 16:38:14;;;;;;;0.10;0.10;;;;;;;;;;12891416;23;20019;-79
2021/09/30 16:43:18;;;;;;;0.20;0.13;;;;;;;;;;12918669;23;20098;-80
2021/09/30 16:48:20;;;;;;;0.10;0.10;;;;;;;;;;12912878;23;20047;-78
2021/09/30 16:53:25;;;;;;;0.10;0.10;;;;;;;;;;12913953;23;20330;-78
2021/09/30 16:58:28;;;;;;;0.10;0.10;;;;;;;;;;12913000;23;20016;-79
2021/09/30 17:09:11;;;;;;;0.10;0.10;;;;;;;;;;12884730;23;20043;-79
2021/09/30 17:14:15;;;;;;;0.00;0.00;;;;;;;;;;12913098;23;20016;-80
2021/09/30 17:19:25;;;;;;;0.00;0.00;;;;;;;;;;12913269;22;20028;-80
2021/09/30 17:24:34;;;;;;;0.10;0.10;;;;;;;;;;12912646;23;20482;-80
2021/09/30 17:29:37;;;;;;;0.10;0.10;;;;;;;;;;12913299;23;20023;-81
2021/09/30 17:34:40;;;;;;;0.10;0.10;;;;;;;;;;12912807;23;20050;-80
2021/09/30 17:39:45;;;;;;;0.10;0.10;;;;;;;;;;12914739;23;20026;-81
2021/09/30 17:44:48;;;;;;;0.10;0.10;;;;;;;;;;12914045;23;20091;-81
2021/09/30 17:49:52;;;;;;;0.10;0.10;;;;;;;;;;12913941;23;20048;-81
2021/09/30 17:54:56;;;;;;;0.20;0.20;;;;;;;;;;12912427;22;20103;-81
2021/09/30 17:59:59;;;;;;;0.10;0.10;;;;;;;;;;12915163;23;20405;-81
2021/09/30 18:05:02;;;;;;;0.00;0.00;;;;;;;;;;12915303;23;20082;-81
2021/09/30 18:10:07;;;;;;;0.40;0.10;;;;;;;;;;12913721;23;20091;-81
2021/09/30 18:15:11;;;;;;;0.10;0.10;;;;;;;;;;12887289;23;20103;-81
2021/09/30 18:20:14;;;;;;;0.10;0.10;;;;;;;;;;12915891;23;20016;-81
2021/09/30 18:25:19;;;;;;;0.10;0.10;;;;;;;;;;12914285;23;20020;-81
2021/09/30 18:30:22;;;;;;;0.10;0.10;;;;;;;;;;12916000;23;20095;-81
2021/09/30 18:35:25;;;;;;;0.10;0.00;;;;;;;;;;12915249;23;20091;-80
2021/09/30 18:40:33;;;;;;;0.20;0.10;;;;;;;;;;12914630;23;20027;-81
2021/09/30 18:45:36;;;;;;;0.10;0.10;;;;;;;;;;12915458;23;20342;-81
2021/09/30 18:50:39;;;;;;;0.10;0.10;;;;;;;;;;12915979;23;20031;-81
2021/09/30 18:55:44;;;;;;;0.20;0.10;;;;;;;;;;12915300;23;20023;-80
2021/09/30 19:00:47;;;;;;;0.10;0.10;;;;;;;;;;12923277;23;20039;-80
2021/09/30 19:05:51;;;;;;;0.10;0.10;;;;;;;;;;12967876;23;20012;-81
2021/09/30 19:10:55;;;;;;;0.17;0.10;;;;;;;;;;12967464;23;20020;-81
2021/09/30 19:15:59;;;;;;;0.10;0.10;;;;;;;;;;12925841;22;20031;-81
2021/09/30 19:21:02;;;;;;;0.10;0.10;;;;;;;;;;12889945;23;20103;-80
2021/09/30 19:26:06;;;;;;;0.10;0.10;;;;;;;;;;12912892;23;20019;-80
2021/09/30 19:31:10;;;;;;;0.15;0.15;;;;;;;;;;12914044;23;20048;-79
2021/09/30 19:36:13;;;;;;;0.10;0.10;;;;;;;;;;12914198;23;20019;-80
2021/09/30 19:41:20;;;;;;;0.10;0.10;;;;;;;;;;12912227;23;20023;-81
2021/09/30 19:46:38;;;;;;;0.10;0.10;;;;;;;;;;12911022;22;20024;-77
2021/09/30 19:51:41;;;;;;;0.10;0.10;;;;;;;;;;12909236;23;20067;-77
2021/09/30 19:56:45;;;;;;;0.10;0.10;;;;;;;;;;12911991;23;20012;-76
2021/09/30 20:01:49;;;;;;;0.10;0.10;;;;;;;;;;12913478;23;20042;-77
2021/09/30 20:06:52;;;;;;;0.10;0.10;;;;;;;;;;12913877;23;20447;-77
2021/09/30 20:11:56;;;;;;;0.17;0.17;;;;;;;;;;12885341;23;20099;-77
2021/09/30 20:17:00;;;;;;;0.15;0.10;;;;;;;;;;12884815;23;20055;-77
2021/09/30 20:22:03;;;;;;;0.10;0.10;;;;;;;;;;12912164;23;20051;-76
2021/09/30 20:27:07;;;;;;;0.10;0.10;;;;;;;;;;12893916;22;20052;-76
2021/09/30 20:32:10;;;;;;;0.10;0.10;;;;;;;;;;12847700;23;20055;-76
2021/09/30 20:37:14;;;;;;;0.20;0.10;;;;;;;;;;12848596;23;20020;-77
2021/09/30 20:42:22;;;;;;;0.10;0.10;;;;;;;;;;12849257;23;20021;-78
2021/09/30 20:47:24;;;;;;;0.10;0.10;;;;;;;;;;12846791;23;20023;-77
2021/09/30 20:52:28;;;;;;;0.17;0.10;;;;;;;;;;12848777;23;20020;-77
2021/09/30 20:57:32;;;;;;;0.10;0.10;;;;;;;;;;12849311;23;20040;-77
2021/09/30 21:02:34;;;;;;;0.10;0.10;;;;;;;;;;12849179;23;20840;-77
2021/09/30 21:07:38;;;;;;;0.10;0.10;;;;;;;;;;12849032;23;20375;-76
2021/09/30 21:12:42;;;;;;;0.10;0.10;;;;;;;;;;12848002;23;20111;-77
2021/09/30 21:17:44;;;;;;;0.00;0.00;;;;;;;;;;12849171;23;20083;-77
2021/09/30 21:22:47;;;;;;;0.10;0.10;;;;;;;;;;12852843;23;20680;-76
2021/09/30 21:27:51;;;;;;;0.00;0.00;;;;;;;;;;12907727;23;20482;-77
2021/09/30 21:32:54;;;;;;;0.10;0.10;;;;;;;;;;12910891;22;20318;-76
2021/09/30 21:37:57;;;;;;;0.20;0.20;;;;;;;;;;12911275;23;20095;-77
2021/09/30 21:43:01;;;;;;;0.10;0.10;;;;;;;;;;12909204;23;20102;-77
2021/09/30 21:48:04;;;;;;;0.20;0.20;;;;;;;;;;12911358;23;20354;-76
2021/09/30 21:53:08;;;;;;;0.10;0.10;;;;;;;;;;12911459;23;20074;-76
2021/09/30 21:58:12;;;;;;;0.10;0.10;;;;;;;;;;12912207;23;20494;-76
2021/09/30 22:03:17;;;;;;;0.10;0.10;;;;;;;;;;12910769;23;20027;-77
2021/09/30 22:08:20;;;;;;;0.10;0.10;;;;;;;;;;12911995;23;20427;-77
2021/09/30 22:13:25;;;;;;;0.00;0.00;;;;;;;;;;12911275;23;20043;-77
2021/09/30 22:18:28;;;;;;;0.10;0.10;;;;;;;;;;12913465;22;20074;-77
2021/09/30 22:23:31;;;;;;;0.10;0.10;;;;;;;;;;12912375;23;20020;-76
2021/09/30 22:28:35;;;;;;;0.10;0.10;;;;;;;;;;12912311;22;20051;-76
2021/09/30 22:33:40;;;;;;;0.10;0.10;;;;;;;;;;12911946;23;20044;-76
2021/09/30 22:38:43;;;;;;;0.10;0.10;;;;;;;;;;12908921;23;20048;-76
2021/09/30 22:43:47;;;;;;;0.10;0.10;;;;;;;;;;12908650;23;20043;-76
2021/09/30 22:48:51;;;;;;;0.10;0.10;;;;;;;;;;12909570;23;20046;-76
2021/09/30 22:53:54;;;;;;;0.10;0.10;;;;;;;;;;12908112;22;20119;-76
2021/09/30 22:58:58;;;;;;;0.10;0.10;;;;;;;;;;12911167;23;20024;-76
2021/09/30 23:04:02;;;;;;;0.20;0.10;;;;;;;;;;12915831;23;20020;-76
2021/09/30 23:09:05;;;;;;;0.10;0.10;;;;;;;;;;12935613;22;20047;-76
2021/09/30 23:14:09;;;;;;;0.43;0.20;;;;;;;;;;12953066;23;20087;-76
2021/09/30 23:19:12;;;;;;;0.10;0.10;;;;;;;;;;12930237;23;20070;-76
2021/09/30 23:24:16;;;;;;;0.10;0.10;;;;;;;;;;12908397;22;20054;-76
2021/09/30 23:29:20;;;;;;;0.10;0.10;;;;;;;;;;12906784;22;20023;-76
2021/09/30 23:34:24;;;;;;;0.20;0.20;;;;;;;;;;12906703;23;20089;-76
2021/09/30 23:39:27;;;;;;;0.10;0.10;;;;;;;;;;12905166;23;20016;-76
2021/09/30 23:44:31;;;;;;;0.10;0.10;;;;;;;;;;12908135;23;20023;-77
2021/09/30 23:49:35;;;;;;;0.10;0.10;;;;;;;;;;12908578;22;20016;-76
2021/09/30 23:54:38;;;;;;;0.10;0.10;;;;;;;;;;12909058;22;20054;-76
2021/09/30 23:59:43;;;;;;;0.20;0.20;;;;;;;;;;12909329;22;20055;-76
